»·PEaware :: WAT169 KELP-KLAS

WAT169 :: KELP-KLAS

FLIGHT INFORMATION

Flight Status: Arrived
Operator:
Walker Air Transport
More flights by this operator :: More flights under this callsign
Pilot: Marty P. (27464)
Aircraft: BOEING 737-800
(B738)
More flights by this aircraft type
Origin: KELP El Paso Intl
United States
Destination: KLAS McCarran Intl
United States
More flights between these airports :: More routes between these airports
Route: ATKNN5 GREBE J86 INW BAVPE J86 PGS TYSSN5
File this flight plan on PilotEdge
Remarks:
Altitude:
(Current/Filed)
38,000ft
Speed:
(Current/Filed)
480kts
Departed: 10-Oct-20 08:22 PM
Arrived: 10-Oct-20 09:40 PM
Distance/Time
Traveled:
506nm/1:18
Distance/Time
To Go:
Arrived

Flight Plot

Page will automatically refresh every two minutes.

Flight plan parsing failed; only flown route is shown


Map Options




Map Legend


Flown Route
Filed Route
Departure Airport
Arrival Airport
Navaid (VOR, NDB)
Fix

Horizontal Profiles

Position Reports

Time Latitude Longitude Heading Altitude Ground
Speed
10-Oct-20 19:59 31.799623 -106.393746 349 3926ft 0kts
10-Oct-20 20:00 31.799623 -106.393746 349 3926ft 0kts
10-Oct-20 20:01 31.799623 -106.393746 349 3926ft 0kts
10-Oct-20 20:02 31.799623 -106.393746 349 3926ft 0kts
10-Oct-20 20:04 31.799623 -106.393746 349 3926ft 0kts
10-Oct-20 20:05 31.799623 -106.393746 349 3926ft 0kts
10-Oct-20 20:06 31.799623 -106.393746 349 3926ft 0kts
10-Oct-20 20:07 31.799623 -106.393746 349 3926ft 0kts
10-Oct-20 20:08 31.799622 -106.393746 349 3926ft 0kts
10-Oct-20 20:09 31.799342 -106.393581 38 3926ft 1kts
10-Oct-20 20:10 31.799423 -106.392810 74 3927ft 4kts
10-Oct-20 20:11 31.799643 -106.391827 75 3927ft 0kts
10-Oct-20 20:12 31.799644 -106.391826 75 3927ft 0kts
10-Oct-20 20:13 31.799785 -106.391492 61 3927ft 0kts
10-Oct-20 20:14 31.799894 -106.389236 89 3929ft 17kts
10-Oct-20 20:15 31.799924 -106.382498 89 3941ft 19kts
10-Oct-20 20:16 31.799820 -106.376822 93 3947ft 15kts
10-Oct-20 20:17 31.799464 -106.369616 93 3958ft 22kts
10-Oct-20 20:18 31.799123 -106.362888 93 3957ft 18kts
10-Oct-20 20:18 31.799591 -106.360375 3 3950ft 0kts
10-Oct-20 20:20 31.799591 -106.360375 3 3950ft 0kts
10-Oct-20 20:20 31.799591 -106.360375 3 3950ft 0kts
10-Oct-20 20:22 31.800882 -106.364782 273 3960ft 76kts
10-Oct-20 20:23 31.802987 -106.415123 266 4797ft 186kts
10-Oct-20 20:23 31.777701 -106.464936 244 5862ft 250kts
10-Oct-20 20:25 31.789858 -106.554139 311 10081ft 265kts
10-Oct-20 20:25 31.850445 -106.592126 346 11165ft 349kts
10-Oct-20 20:26 31.959323 -106.611645 349 11960ft 438kts
10-Oct-20 20:27 32.068584 -106.665258 321 16224ft 407kts
10-Oct-20 20:28 32.153246 -106.757058 314 18668ft 422kts
10-Oct-20 20:29 32.241025 -106.852143 314 20862ft 436kts
10-Oct-20 20:30 32.326058 -106.955577 308 22817ft 446kts
10-Oct-20 20:31 32.409628 -107.066433 307 24595ft 457kts
10-Oct-20 20:32 32.494766 -107.179975 307 26162ft 467kts
10-Oct-20 20:33 32.581583 -107.296173 307 27608ft 476kts
10-Oct-20 20:34 32.669113 -107.413680 306 29251ft 476kts
10-Oct-20 20:35 32.756272 -107.531057 305 30989ft 471kts
10-Oct-20 20:36 32.841678 -107.646446 305 32679ft 463kts
10-Oct-20 20:37 32.925861 -107.760544 303 34302ft 455kts
10-Oct-20 20:38 33.008685 -107.873210 303 35652ft 451kts
10-Oct-20 20:39 33.090857 -107.985352 303 36764ft 450kts
10-Oct-20 20:40 33.173303 -108.098198 302 37537ft 452kts
10-Oct-20 20:41 33.255648 -108.211573 302 38177ft 455kts
10-Oct-20 20:42 33.339503 -108.327187 302 38173ft 469kts
10-Oct-20 20:43 33.426105 -108.445919 303 38174ft 478kts
10-Oct-20 20:44 33.513821 -108.566219 303 38225ft 481kts
10-Oct-20 20:45 33.601754 -108.687147 302 38264ft 483kts
10-Oct-20 20:46 33.690003 -108.808918 302 38265ft 486kts
10-Oct-20 20:47 33.778660 -108.931643 302 38264ft 488kts
10-Oct-20 20:48 33.867304 -109.054789 303 38266ft 489kts
10-Oct-20 20:49 33.956329 -109.178830 303 38266ft 489kts
10-Oct-20 20:50 34.044959 -109.302764 303 38264ft 488kts
10-Oct-20 20:51 34.133068 -109.426396 303 38265ft 487kts
10-Oct-20 20:52 34.216029 -109.554260 299 38253ft 482kts
10-Oct-20 20:53 34.298551 -109.682498 302 38210ft 486kts
10-Oct-20 20:54 34.386023 -109.807517 302 38196ft 487kts
10-Oct-20 20:55 34.472897 -109.932504 302 38212ft 486kts
10-Oct-20 20:56 34.559718 -110.058026 303 38193ft 487kts
10-Oct-20 20:57 34.646519 -110.183926 303 38191ft 487kts
10-Oct-20 20:58 34.733091 -110.309977 303 38190ft 486kts
10-Oct-20 20:59 34.819621 -110.436375 304 38155ft 486kts
10-Oct-20 21:00 34.905714 -110.563199 304 38127ft 486kts
10-Oct-20 21:01 34.991085 -110.690022 304 38127ft 485kts
10-Oct-20 21:02 35.072061 -110.820700 297 38129ft 480kts
10-Oct-20 21:03 35.142252 -110.959604 297 38151ft 478kts
10-Oct-20 21:04 35.210871 -111.098264 297 38204ft 477kts
10-Oct-20 21:05 35.279248 -111.237524 298 38219ft 477kts
10-Oct-20 21:06 35.347163 -111.376558 298 38219ft 478kts
10-Oct-20 21:07 35.415158 -111.516310 299 38208ft 478kts
10-Oct-20 21:08 35.483197 -111.656758 299 38194ft 478kts
10-Oct-20 21:09 35.551004 -111.797333 300 38182ft 479kts
10-Oct-20 21:10 35.590425 -111.951997 277 38187ft 480kts
10-Oct-20 21:11 35.596985 -112.116369 274 38038ft 484kts
10-Oct-20 21:12 35.601991 -112.277542 274 35545ft 460kts
10-Oct-20 21:13 35.606286 -112.431964 272 33055ft 453kts
10-Oct-20 21:14 35.609379 -112.588245 270 30547ft 459kts
10-Oct-20 21:15 35.612507 -112.745781 270 28031ft 467kts
10-Oct-20 21:16 35.615615 -112.906879 270 25928ft 477kts
10-Oct-20 21:17 35.618559 -113.068412 270 24191ft 469kts
10-Oct-20 21:18 35.621281 -113.227405 270 22584ft 458kts
10-Oct-20 21:19 35.623715 -113.381726 270 21001ft 446kts
10-Oct-20 21:20 35.627015 -113.532139 274 19497ft 436kts
10-Oct-20 21:21 35.644525 -113.677420 277 17996ft 424kts
10-Oct-20 21:22 35.664158 -113.819341 277 16360ft 418kts
10-Oct-20 21:23 35.683120 -113.953844 277 14368ft 379kts
10-Oct-20 21:24 35.700029 -114.075748 277 12873ft 356kts
10-Oct-20 21:25 35.716036 -114.190676 277 12056ft 311kts
10-Oct-20 21:26 35.729676 -114.289768 277 12080ft 293kts
10-Oct-20 21:27 35.756957 -114.382384 313 12044ft 300kts
10-Oct-20 21:28 35.833284 -114.426327 337 12020ft 306kts
10-Oct-20 21:29 35.912930 -114.463225 336 12019ft 306kts
10-Oct-20 21:30 35.978607 -114.520211 285 11353ft 299kts
10-Oct-20 21:31 35.999115 -114.618061 281 9402ft 283kts
10-Oct-20 21:32 36.018101 -114.706567 281 7640ft 249kts
10-Oct-20 21:33 36.035482 -114.785085 282 6915ft 236kts
10-Oct-20 21:34 36.055973 -114.860297 280 5895ft 229kts
10-Oct-20 21:35 36.070378 -114.934572 279 4982ft 205kts
10-Oct-20 21:36 36.073584 -115.001051 266 4069ft 192kts
10-Oct-20 21:37 36.073630 -115.066698 268 3040ft 176kts
10-Oct-20 21:38 36.073652 -115.120357 267 2189ft 153kts
10-Oct-20 21:39 36.074612 -115.145665 299 2103ft 7kts
10-Oct-20 21:40 36.077303 -115.146553 358 2103ft 1kts
10-Oct-20 21:41 36.078725 -115.147179 5 2101ft 8kts

Navigation Log

Ident Type
Flight plan parsing failed, navigation log unavailable